Pagrindinis puslapis
METAR-TAF:

METAR-TAF

Oro uostai :

Batmanas, Turkija

platuma: 37-52N, ilguma: 041-10E, Aukštis: 540 m

Dabartinis oras

Ataskaita buvo paskelbta 49 minutes, ne 04:20 UTC
Vėjas 6 kt iš Šiaurės Rytų, svyruoja nuo Šiaurės ir Rytų
Temperatūra 8°C
Drėgmė 81%
Slėgis 1017 hPa
Matomumas 10 km arba daugiau
Su prošvaistėmis ne aukštis 3500 ft
Apsiniaukę ne aukštis 8000 ft

METAR: LTCJ 100420Z 05006KT 010V080 9999 BKN035 OVC080 08/05 Q1017 RMK RWY20 VRB02KT

Laikas: 08:09 (05:09 UTC)

Prognozė

Ataskaita buvo paskelbta 6 valandos ir 29 minutes, ne 22:40 UTC
Prognozė galioja nuo 10 metu 00 UTC su 10 metu 24 UTC
Vėjas 12 kt iš Šiaurės Rytų
Matomumas 10 km arba daugiau
Mažai debesys ne aukštis 1500 ft
Su prošvaistėmis ne aukštis 3500 ft
Apsiniaukę ne aukštis 9000 ft
lietus
Laikinai
nuo 10 metu 06 UTC su 10 metu 10 UTC
Matomumas: 2500 m
lietus

TAF: LTCJ 092240Z 1000/1024 05012KT 9999 -RA FEW015 BKN035 OVC090 TEMPO 1006/1010 2500 RA

Orai ataskaitas ir orų prognozės (METAR, TAF).

turimą stotys yra geltonos ir raudonos taškus žemėlapyje.

Perkelti pele per norėdami pamatyti stoties vardą.

Tada spustelėkite, norėdami matyti oro stebėjimo ir prognozės.

Norėdami pakeisti žemėlapį: spustelėkite ant žalios mygtukų su juodo kryžiaus žemyn,; žalią mygtuką su brūkšneliu, jei norite nutolinti; arba žalių rodyklių gretimoms žemėlapius.


METAR-TAF: